sensor_id;sensor_type;location;lat;lon;timestamp;P1;durP1;ratioP1;P2;durP2;ratioP2
12145;SDS011;6136;47.032;15.398;2022-09-09T00:00:20;2.00;;;0.60;;
12145;SDS011;6136;47.032;15.398;2022-09-09T00:02:55;1.57;;;0.83;;
12145;SDS011;6136;47.032;15.398;2022-09-09T00:05:31;0.70;;;0.67;;
12145;SDS011;6136;47.032;15.398;2022-09-09T00:08:07;0.80;;;0.80;;
12145;SDS011;6136;47.032;15.398;2022-09-09T00:10:45;3.30;;;0.80;;
12145;SDS011;6136;47.032;15.398;2022-09-09T00:13:20;2.73;;;0.80;;
12145;SDS011;6136;47.032;15.398;2022-09-09T00:15:55;0.67;;;0.67;;
12145;SDS011;6136;47.032;15.398;2022-09-09T00:18:29;0.57;;;0.57;;
12145;SDS011;6136;47.032;15.398;2022-09-09T00:21:14;0.90;;;0.70;;
12145;SDS011;6136;47.032;15.398;2022-09-09T00:23:44;0.93;;;0.93;;
12145;SDS011;6136;47.032;15.398;2022-09-09T00:26:17;0.90;;;0.80;;
12145;SDS011;6136;47.032;15.398;2022-09-09T00:28:58;0.73;;;0.60;;
12145;SDS011;6136;47.032;15.398;2022-09-09T00:31:33;0.87;;;0.83;;
12145;SDS011;6136;47.032;15.398;2022-09-09T00:34:05;1.03;;;0.73;;
12145;SDS011;6136;47.032;15.398;2022-09-09T00:36:39;1.23;;;0.60;;
12145;SDS011;6136;47.032;15.398;2022-09-09T00:42:02;1.13;;;0.70;;
12145;SDS011;6136;47.032;15.398;2022-09-09T00:44:46;0.60;;;0.60;;
12145;SDS011;6136;47.032;15.398;2022-09-09T00:47:25;0.80;;;0.80;;
12145;SDS011;6136;47.032;15.398;2022-09-09T00:53:15;0.83;;;0.83;;
12145;SDS011;6136;47.032;15.398;2022-09-09T00:55:58;1.00;;;0.90;;
12145;SDS011;6136;47.032;15.398;2022-09-09T00:58:34;2.40;;;0.97;;
12145;SDS011;6136;47.032;15.398;2022-09-09T01:01:03;2.37;;;0.97;;
12145;SDS011;6136;47.032;15.398;2022-09-09T01:03:34;3.83;;;0.90;;
12145;SDS011;6136;47.032;15.398;2022-09-09T01:06:13;2.53;;;0.83;;
12145;SDS011;6136;47.032;15.398;2022-09-09T01:08:59;1.10;;;1.00;;
12145;SDS011;6136;47.032;15.398;2022-09-09T01:11:37;0.90;;;0.90;;
12145;SDS011;6136;47.032;15.398;2022-09-09T01:14:20;2.20;;;0.93;;
12145;SDS011;6136;47.032;15.398;2022-09-09T01:16:58;0.87;;;0.87;;
12145;SDS011;6136;47.032;15.398;2022-09-09T01:19:36;0.87;;;0.87;;
12145;SDS011;6136;47.032;15.398;2022-09-09T01:22:17;0.90;;;0.90;;
12145;SDS011;6136;47.032;15.398;2022-09-09T01:25:01;1.00;;;0.90;;
12145;SDS011;6136;47.032;15.398;2022-09-09T01:27:54;0.80;;;0.80;;
12145;SDS011;6136;47.032;15.398;2022-09-09T01:30:26;0.90;;;0.90;;
12145;SDS011;6136;47.032;15.398;2022-09-09T01:32:57;1.30;;;1.00;;
12145;SDS011;6136;47.032;15.398;2022-09-09T01:35:29;1.33;;;0.90;;
12145;SDS011;6136;47.032;15.398;2022-09-09T01:38:05;1.53;;;0.87;;
12145;SDS011;6136;47.032;15.398;2022-09-09T01:40:34;2.80;;;0.87;;
12145;SDS011;6136;47.032;15.398;2022-09-09T01:43:04;1.43;;;1.17;;
12145;SDS011;6136;47.032;15.398;2022-09-09T01:45:33;0.90;;;0.90;;
12145;SDS011;6136;47.032;15.398;2022-09-09T01:48:02;1.00;;;1.00;;
12145;SDS011;6136;47.032;15.398;2022-09-09T01:50:42;3.23;;;1.27;;
12145;SDS011;6136;47.032;15.398;2022-09-09T01:53:11;1.40;;;1.10;;
12145;SDS011;6136;47.032;15.398;2022-09-09T01:55:44;0.90;;;0.90;;
12145;SDS011;6136;47.032;15.398;2022-09-09T01:58:24;1.17;;;0.87;;
12145;SDS011;6136;47.032;15.398;2022-09-09T02:01:02;1.33;;;1.00;;
12145;SDS011;6136;47.032;15.398;2022-09-09T02:03:41;4.57;;;0.93;;
12145;SDS011;6136;47.032;15.398;2022-09-09T02:06:20;0.90;;;0.90;;
12145;SDS011;6136;47.032;15.398;2022-09-09T02:09:04;1.00;;;1.00;;
12145;SDS011;6136;47.032;15.398;2022-09-09T02:11:33;1.97;;;1.20;;
12145;SDS011;6136;47.032;15.398;2022-09-09T02:14:14;1.70;;;1.10;;
12145;SDS011;6136;47.032;15.398;2022-09-09T02:16:48;1.00;;;1.00;;
12145;SDS011;6136;47.032;15.398;2022-09-09T02:19:23;1.73;;;1.17;;
12145;SDS011;6136;47.032;15.398;2022-09-09T02:22:22;3.17;;;1.30;;
12145;SDS011;6136;47.032;15.398;2022-09-09T02:24:54;5.90;;;1.20;;
12145;SDS011;6136;47.032;15.398;2022-09-09T02:27:28;0.97;;;0.90;;
12145;SDS011;6136;47.032;15.398;2022-09-09T02:29:58;0.80;;;0.80;;
12145;SDS011;6136;47.032;15.398;2022-09-09T02:32:35;1.40;;;1.30;;
12145;SDS011;6136;47.032;15.398;2022-09-09T02:35:08;1.33;;;1.23;;
12145;SDS011;6136;47.032;15.398;2022-09-09T02:37:39;1.30;;;1.20;;
12145;SDS011;6136;47.032;15.398;2022-09-09T02:40:13;4.73;;;1.30;;
12145;SDS011;6136;47.032;15.398;2022-09-09T02:42:50;1.60;;;1.33;;
12145;SDS011;6136;47.032;15.398;2022-09-09T02:45:22;1.30;;;1.20;;
12145;SDS011;6136;47.032;15.398;2022-09-09T02:47:56;1.40;;;1.30;;
12145;SDS011;6136;47.032;15.398;2022-09-09T02:50:33;1.27;;;1.17;;
12145;SDS011;6136;47.032;15.398;2022-09-09T02:53:06;2.70;;;1.40;;
12145;SDS011;6136;47.032;15.398;2022-09-09T02:55:41;2.07;;;1.40;;
12145;SDS011;6136;47.032;15.398;2022-09-09T02:58:17;2.77;;;1.47;;
12145;SDS011;6136;47.032;15.398;2022-09-09T03:00:56;2.73;;;1.40;;
12145;SDS011;6136;47.032;15.398;2022-09-09T03:03:26;2.93;;;2.10;;
12145;SDS011;6136;47.032;15.398;2022-09-09T03:05:55;4.10;;;1.90;;
12145;SDS011;6136;47.032;15.398;2022-09-09T03:08:25;4.00;;;1.60;;
12145;SDS011;6136;47.032;15.398;2022-09-09T03:10:57;5.27;;;2.03;;
12145;SDS011;6136;47.032;15.398;2022-09-09T03:13:30;2.80;;;1.60;;
12145;SDS011;6136;47.032;15.398;2022-09-09T03:16:00;3.33;;;1.77;;
12145;SDS011;6136;47.032;15.398;2022-09-09T03:18:31;2.00;;;1.30;;
12145;SDS011;6136;47.032;15.398;2022-09-09T03:21:00;1.60;;;1.50;;
12145;SDS011;6136;47.032;15.398;2022-09-09T03:23:29;2.83;;;1.63;;
12145;SDS011;6136;47.032;15.398;2022-09-09T03:26:00;4.20;;;2.17;;
12145;SDS011;6136;47.032;15.398;2022-09-09T03:28:37;2.03;;;1.60;;
12145;SDS011;6136;47.032;15.398;2022-09-09T03:31:07;2.10;;;1.63;;
12145;SDS011;6136;47.032;15.398;2022-09-09T03:33:39;1.77;;;1.57;;
12145;SDS011;6136;47.032;15.398;2022-09-09T03:36:12;3.47;;;2.30;;
12145;SDS011;6136;47.032;15.398;2022-09-09T03:38:40;4.57;;;2.37;;
12145;SDS011;6136;47.032;15.398;2022-09-09T03:41:09;3.30;;;1.87;;
12145;SDS011;6136;47.032;15.398;2022-09-09T03:43:38;5.27;;;1.80;;
12145;SDS011;6136;47.032;15.398;2022-09-09T03:46:07;3.17;;;1.70;;
12145;SDS011;6136;47.032;15.398;2022-09-09T03:48:36;4.07;;;1.60;;
12145;SDS011;6136;47.032;15.398;2022-09-09T03:51:04;3.83;;;1.60;;
12145;SDS011;6136;47.032;15.398;2022-09-09T03:53:34;6.67;;;1.60;;
12145;SDS011;6136;47.032;15.398;2022-09-09T03:56:04;2.73;;;1.60;;
12145;SDS011;6136;47.032;15.398;2022-09-09T03:58:33;1.57;;;1.40;;
12145;SDS011;6136;47.032;15.398;2022-09-09T04:01:06;3.93;;;1.60;;
12145;SDS011;6136;47.032;15.398;2022-09-09T04:03:41;2.47;;;1.70;;
12145;SDS011;6136;47.032;15.398;2022-09-09T04:06:09;2.70;;;2.17;;
12145;SDS011;6136;47.032;15.398;2022-09-09T04:08:42;1.93;;;1.60;;
12145;SDS011;6136;47.032;15.398;2022-09-09T04:11:11;4.53;;;1.73;;
12145;SDS011;6136;47.032;15.398;2022-09-09T04:13:40;3.23;;;1.80;;
12145;SDS011;6136;47.032;15.398;2022-09-09T04:16:12;1.83;;;1.50;;
12145;SDS011;6136;47.032;15.398;2022-09-09T04:18:42;3.97;;;1.57;;
12145;SDS011;6136;47.032;15.398;2022-09-09T04:21:13;3.43;;;1.87;;
12145;SDS011;6136;47.032;15.398;2022-09-09T04:23:41;2.83;;;1.80;;
12145;SDS011;6136;47.032;15.398;2022-09-09T04:26:13;9.93;;;1.97;;
12145;SDS011;6136;47.032;15.398;2022-09-09T04:28:43;3.93;;;1.70;;
12145;SDS011;6136;47.032;15.398;2022-09-09T04:31:18;1.50;;;1.40;;
12145;SDS011;6136;47.032;15.398;2022-09-09T04:33:52;4.97;;;2.20;;
12145;SDS011;6136;47.032;15.398;2022-09-09T04:36:21;1.67;;;1.57;;
12145;SDS011;6136;47.032;15.398;2022-09-09T04:38:53;2.27;;;1.60;;
12145;SDS011;6136;47.032;15.398;2022-09-09T04:41:21;5.70;;;1.87;;
12145;SDS011;6136;47.032;15.398;2022-09-09T04:43:52;3.20;;;2.07;;
12145;SDS011;6136;47.032;15.398;2022-09-09T04:46:22;3.03;;;1.90;;
12145;SDS011;6136;47.032;15.398;2022-09-09T04:48:51;3.77;;;1.80;;
12145;SDS011;6136;47.032;15.398;2022-09-09T04:51:22;7.67;;;1.67;;
12145;SDS011;6136;47.032;15.398;2022-09-09T04:53:51;2.33;;;2.03;;
12145;SDS011;6136;47.032;15.398;2022-09-09T04:56:20;3.20;;;2.13;;
12145;SDS011;6136;47.032;15.398;2022-09-09T04:58:55;1.87;;;1.70;;
12145;SDS011;6136;47.032;15.398;2022-09-09T05:01:34;2.37;;;2.03;;
12145;SDS011;6136;47.032;15.398;2022-09-09T05:04:04;5.93;;;1.80;;
12145;SDS011;6136;47.032;15.398;2022-09-09T05:06:33;3.20;;;2.27;;
12145;SDS011;6136;47.032;15.398;2022-09-09T05:09:03;2.20;;;1.90;;
12145;SDS011;6136;47.032;15.398;2022-09-09T05:11:32;5.23;;;1.90;;
12145;SDS011;6136;47.032;15.398;2022-09-09T05:14:08;2.53;;;2.33;;
12145;SDS011;6136;47.032;15.398;2022-09-09T05:16:39;4.57;;;2.00;;
12145;SDS011;6136;47.032;15.398;2022-09-09T05:19:07;2.73;;;2.37;;
12145;SDS011;6136;47.032;15.398;2022-09-09T05:21:53;2.10;;;1.77;;
12145;SDS011;6136;47.032;15.398;2022-09-09T05:24:26;7.87;;;2.10;;
12145;SDS011;6136;47.032;15.398;2022-09-09T05:26:57;2.53;;;1.90;;
12145;SDS011;6136;47.032;15.398;2022-09-09T05:29:27;2.10;;;2.00;;
12145;SDS011;6136;47.032;15.398;2022-09-09T05:31:57;2.43;;;2.10;;
12145;SDS011;6136;47.032;15.398;2022-09-09T05:34:25;3.97;;;2.17;;
12145;SDS011;6136;47.032;15.398;2022-09-09T05:36:54;1.93;;;1.80;;
12145;SDS011;6136;47.032;15.398;2022-09-09T05:39:23;2.80;;;2.00;;
12145;SDS011;6136;47.032;15.398;2022-09-09T05:41:51;3.67;;;2.03;;
12145;SDS011;6136;47.032;15.398;2022-09-09T05:44:19;4.20;;;1.93;;
12145;SDS011;6136;47.032;15.398;2022-09-09T05:46:49;5.90;;;2.40;;
12145;SDS011;6136;47.032;15.398;2022-09-09T05:49:19;2.63;;;2.10;;
12145;SDS011;6136;47.032;15.398;2022-09-09T05:51:48;5.63;;;2.10;;
12145;SDS011;6136;47.032;15.398;2022-09-09T05:54:18;2.40;;;2.07;;
12145;SDS011;6136;47.032;15.398;2022-09-09T05:56:49;2.63;;;2.23;;
12145;SDS011;6136;47.032;15.398;2022-09-09T05:59:19;4.33;;;2.63;;
12145;SDS011;6136;47.032;15.398;2022-09-09T06:01:49;4.80;;;2.10;;
12145;SDS011;6136;47.032;15.398;2022-09-09T06:04:25;3.67;;;2.30;;
12145;SDS011;6136;47.032;15.398;2022-09-09T06:06:54;3.10;;;2.00;;
12145;SDS011;6136;47.032;15.398;2022-09-09T06:09:22;3.07;;;2.33;;
12145;SDS011;6136;47.032;15.398;2022-09-09T06:11:50;6.43;;;2.63;;
12145;SDS011;6136;47.032;15.398;2022-09-09T06:14:20;2.73;;;2.10;;
12145;SDS011;6136;47.032;15.398;2022-09-09T06:16:50;7.27;;;3.53;;
12145;SDS011;6136;47.032;15.398;2022-09-09T06:19:22;6.13;;;2.77;;
12145;SDS011;6136;47.032;15.398;2022-09-09T06:21:58;3.03;;;2.10;;
12145;SDS011;6136;47.032;15.398;2022-09-09T06:24:29;4.47;;;2.70;;
12145;SDS011;6136;47.032;15.398;2022-09-09T06:26:59;3.00;;;2.13;;
12145;SDS011;6136;47.032;15.398;2022-09-09T06:29:32;9.20;;;2.93;;
12145;SDS011;6136;47.032;15.398;2022-09-09T06:32:01;2.80;;;2.60;;
12145;SDS011;6136;47.032;15.398;2022-09-09T06:34:30;3.37;;;2.17;;
12145;SDS011;6136;47.032;15.398;2022-09-09T06:37:00;2.67;;;2.47;;
12145;SDS011;6136;47.032;15.398;2022-09-09T06:39:35;3.70;;;2.37;;
12145;SDS011;6136;47.032;15.398;2022-09-09T06:42:03;2.17;;;1.70;;
12145;SDS011;6136;47.032;15.398;2022-09-09T06:44:52;2.40;;;2.00;;
12145;SDS011;6136;47.032;15.398;2022-09-09T06:47:27;4.53;;;2.13;;
12145;SDS011;6136;47.032;15.398;2022-09-09T06:49:57;1.90;;;1.80;;
12145;SDS011;6136;47.032;15.398;2022-09-09T06:52:26;3.63;;;2.00;;
12145;SDS011;6136;47.032;15.398;2022-09-09T06:54:55;3.10;;;2.20;;
12145;SDS011;6136;47.032;15.398;2022-09-09T06:57:25;6.70;;;2.50;;
12145;SDS011;6136;47.032;15.398;2022-09-09T07:00:04;4.77;;;2.57;;
12145;SDS011;6136;47.032;15.398;2022-09-09T07:02:33;3.17;;;2.60;;
12145;SDS011;6136;47.032;15.398;2022-09-09T07:05:06;2.70;;;2.50;;
12145;SDS011;6136;47.032;15.398;2022-09-09T07:07:38;2.17;;;2.03;;
12145;SDS011;6136;47.032;15.398;2022-09-09T07:10:07;2.60;;;2.23;;
12145;SDS011;6136;47.032;15.398;2022-09-09T07:12:37;2.50;;;2.30;;
12145;SDS011;6136;47.032;15.398;2022-09-09T07:15:08;2.60;;;2.40;;
12145;SDS011;6136;47.032;15.398;2022-09-09T07:17:40;3.83;;;2.30;;
12145;SDS011;6136;47.032;15.398;2022-09-09T07:20:09;2.67;;;2.47;;
12145;SDS011;6136;47.032;15.398;2022-09-09T07:22:39;3.00;;;2.70;;
12145;SDS011;6136;47.032;15.398;2022-09-09T07:25:08;2.87;;;2.20;;
12145;SDS011;6136;47.032;15.398;2022-09-09T07:27:37;2.67;;;2.43;;
12145;SDS011;6136;47.032;15.398;2022-09-09T07:30:05;4.07;;;2.30;;
12145;SDS011;6136;47.032;15.398;2022-09-09T07:32:34;3.03;;;2.70;;
12145;SDS011;6136;47.032;15.398;2022-09-09T07:35:03;2.57;;;2.37;;
12145;SDS011;6136;47.032;15.398;2022-09-09T07:37:31;2.23;;;2.07;;
12145;SDS011;6136;47.032;15.398;2022-09-09T07:40:01;3.53;;;2.13;;
12145;SDS011;6136;47.032;15.398;2022-09-09T07:42:31;3.97;;;2.03;;
12145;SDS011;6136;47.032;15.398;2022-09-09T07:44:59;3.20;;;2.27;;
12145;SDS011;6136;47.032;15.398;2022-09-09T07:47:27;2.20;;;2.00;;
12145;SDS011;6136;47.032;15.398;2022-09-09T07:49:55;3.03;;;2.20;;
12145;SDS011;6136;47.032;15.398;2022-09-09T07:52:29;6.33;;;2.40;;
12145;SDS011;6136;47.032;15.398;2022-09-09T07:55:01;2.37;;;2.17;;
12145;SDS011;6136;47.032;15.398;2022-09-09T07:57:31;2.30;;;2.07;;
12145;SDS011;6136;47.032;15.398;2022-09-09T08:00:01;4.13;;;2.13;;
12145;SDS011;6136;47.032;15.398;2022-09-09T08:02:37;4.30;;;2.20;;
12145;SDS011;6136;47.032;15.398;2022-09-09T08:05:07;2.97;;;2.67;;
12145;SDS011;6136;47.032;15.398;2022-09-09T08:07:38;2.40;;;2.20;;
12145;SDS011;6136;47.032;15.398;2022-09-09T08:10:08;2.63;;;2.30;;
12145;SDS011;6136;47.032;15.398;2022-09-09T08:12:39;2.40;;;2.20;;
12145;SDS011;6136;47.032;15.398;2022-09-09T08:15:13;3.53;;;2.43;;
12145;SDS011;6136;47.032;15.398;2022-09-09T08:17:42;3.93;;;2.50;;
12145;SDS011;6136;47.032;15.398;2022-09-09T08:20:11;7.60;;;2.60;;
12145;SDS011;6136;47.032;15.398;2022-09-09T08:22:39;3.10;;;2.47;;
12145;SDS011;6136;47.032;15.398;2022-09-09T08:25:09;4.83;;;2.60;;
12145;SDS011;6136;47.032;15.398;2022-09-09T08:27:37;2.70;;;2.50;;
12145;SDS011;6136;47.032;15.398;2022-09-09T08:30:06;4.83;;;2.60;;
12145;SDS011;6136;47.032;15.398;2022-09-09T08:32:35;2.90;;;2.60;;
12145;SDS011;6136;47.032;15.398;2022-09-09T08:35:06;4.33;;;2.37;;
12145;SDS011;6136;47.032;15.398;2022-09-09T08:37:34;4.20;;;2.80;;
12145;SDS011;6136;47.032;15.398;2022-09-09T08:40:04;4.17;;;2.60;;
12145;SDS011;6136;47.032;15.398;2022-09-09T08:42:39;3.90;;;2.70;;
12145;SDS011;6136;47.032;15.398;2022-09-09T08:45:19;2.27;;;2.07;;
12145;SDS011;6136;47.032;15.398;2022-09-09T08:48:05;4.17;;;2.90;;
12145;SDS011;6136;47.032;15.398;2022-09-09T08:50:42;3.33;;;2.97;;
12145;SDS011;6136;47.032;15.398;2022-09-09T08:53:17;3.63;;;2.70;;
12145;SDS011;6136;47.032;15.398;2022-09-09T08:55:53;2.80;;;2.60;;
12145;SDS011;6136;47.032;15.398;2022-09-09T08:58:43;6.03;;;2.83;;
12145;SDS011;6136;47.032;15.398;2022-09-09T09:01:22;2.40;;;2.20;;
12145;SDS011;6136;47.032;15.398;2022-09-09T09:04:22;4.03;;;2.22;;
12145;SDS011;6136;47.032;15.398;2022-09-09T09:07:09;3.75;;;2.70;;
12145;SDS011;6136;47.032;15.398;2022-09-09T09:09:51;2.70;;;2.25;;
12145;SDS011;6136;47.032;15.398;2022-09-09T09:12:30;3.40;;;2.03;;
12145;SDS011;6136;47.032;15.398;2022-09-09T09:15:07;3.28;;;2.80;;
12145;SDS011;6136;47.032;15.398;2022-09-09T09:17:43;4.97;;;2.25;;
12145;SDS011;6136;47.032;15.398;2022-09-09T09:20:12;3.13;;;2.30;;
12145;SDS011;6136;47.032;15.398;2022-09-09T09:22:44;2.60;;;2.00;;
12145;SDS011;6136;47.032;15.398;2022-09-09T09:25:19;2.70;;;2.08;;
12145;SDS011;6136;47.032;15.398;2022-09-09T09:27:50;4.15;;;2.13;;
12145;SDS011;6136;47.032;15.398;2022-09-09T09:30:27;2.25;;;2.05;;
12145;SDS011;6136;47.032;15.398;2022-09-09T09:33:05;2.15;;;1.95;;
12145;SDS011;6136;47.032;15.398;2022-09-09T09:35:41;2.30;;;2.10;;
12145;SDS011;6136;47.032;15.398;2022-09-09T09:38:16;4.15;;;1.98;;
12145;SDS011;6136;47.032;15.398;2022-09-09T09:41:10;2.40;;;2.20;;
12145;SDS011;6136;47.032;15.398;2022-09-09T09:43:39;1.58;;;1.48;;
12145;SDS011;6136;47.032;15.398;2022-09-09T09:46:20;1.85;;;1.45;;
12145;SDS011;6136;47.032;15.398;2022-09-09T09:48:59;2.22;;;1.95;;
12145;SDS011;6136;47.032;15.398;2022-09-09T09:51:29;2.05;;;1.85;;
12145;SDS011;6136;47.032;15.398;2022-09-09T09:54:13;1.83;;;1.73;;
12145;SDS011;6136;47.032;15.398;2022-09-09T09:56:51;2.08;;;1.80;;
12145;SDS011;6136;47.032;15.398;2022-09-09T09:59:20;1.70;;;1.60;;
12145;SDS011;6136;47.032;15.398;2022-09-09T10:05:12;3.30;;;1.98;;
12145;SDS011;6136;47.032;15.398;2022-09-09T10:07:45;2.53;;;1.90;;
12145;SDS011;6136;47.032;15.398;2022-09-09T10:10:16;1.85;;;1.75;;
12145;SDS011;6136;47.032;15.398;2022-09-09T10:12:53;3.25;;;2.30;;
12145;SDS011;6136;47.032;15.398;2022-09-09T10:15:36;1.70;;;1.60;;
12145;SDS011;6136;47.032;15.398;2022-09-09T10:18:20;1.40;;;1.30;;
12145;SDS011;6136;47.032;15.398;2022-09-09T10:21:00;1.67;;;1.58;;
12145;SDS011;6136;47.032;15.398;2022-09-09T10:23:39;1.90;;;1.77;;
12145;SDS011;6136;47.032;15.398;2022-09-09T10:26:25;2.40;;;1.60;;
12145;SDS011;6136;47.032;15.398;2022-09-09T10:29:15;1.70;;;1.45;;
12145;SDS011;6136;47.032;15.398;2022-09-09T10:31:56;3.63;;;1.65;;
12145;SDS011;6136;47.032;15.398;2022-09-09T10:34:39;2.92;;;1.60;;
12145;SDS011;6136;47.032;15.398;2022-09-09T10:37:24;5.03;;;1.65;;
12145;SDS011;6136;47.032;15.398;2022-09-09T10:40:11;1.70;;;1.60;;
12145;SDS011;6136;47.032;15.398;2022-09-09T10:42:59;1.70;;;1.60;;
12145;SDS011;6136;47.032;15.398;2022-09-09T10:45:39;1.92;;;1.80;;
12145;SDS011;6136;47.032;15.398;2022-09-09T10:48:22;1.50;;;1.40;;
12145;SDS011;6136;47.032;15.398;2022-09-09T10:51:07;2.70;;;1.52;;
12145;SDS011;6136;47.032;15.398;2022-09-09T10:53:48;1.70;;;1.60;;
12145;SDS011;6136;47.032;15.398;2022-09-09T10:56:26;1.52;;;1.42;;
12145;SDS011;6136;47.032;15.398;2022-09-09T10:58:56;1.60;;;1.50;;
12145;SDS011;6136;47.032;15.398;2022-09-09T11:01:28;1.65;;;1.55;;
12145;SDS011;6136;47.032;15.398;2022-09-09T11:04:02;1.45;;;1.20;;
12145;SDS011;6136;47.032;15.398;2022-09-09T11:06:40;1.33;;;1.23;;
12145;SDS011;6136;47.032;15.398;2022-09-09T11:09:14;1.70;;;1.60;;
12145;SDS011;6136;47.032;15.398;2022-09-09T11:11:46;2.45;;;1.80;;
12145;SDS011;6136;47.032;15.398;2022-09-09T11:14:21;1.50;;;1.40;;
12145;SDS011;6136;47.032;15.398;2022-09-09T11:17:03;2.38;;;1.20;;
12145;SDS011;6136;47.032;15.398;2022-09-09T11:19:36;1.35;;;1.25;;
12145;SDS011;6136;47.032;15.398;2022-09-09T11:22:08;3.53;;;1.70;;
12145;SDS011;6136;47.032;15.398;2022-09-09T11:24:47;1.77;;;1.55;;
12145;SDS011;6136;47.032;15.398;2022-09-09T11:27:21;2.13;;;1.30;;
12145;SDS011;6136;47.032;15.398;2022-09-09T11:33:21;1.20;;;1.10;;
12145;SDS011;6136;47.032;15.398;2022-09-09T11:36:05;1.35;;;1.30;;
12145;SDS011;6136;47.032;15.398;2022-09-09T11:38:48;1.38;;;1.10;;
12145;SDS011;6136;47.032;15.398;2022-09-09T11:41:19;1.35;;;1.25;;
12145;SDS011;6136;47.032;15.398;2022-09-09T11:43:49;2.13;;;1.30;;
12145;SDS011;6136;47.032;15.398;2022-09-09T11:46:19;1.15;;;1.15;;
12145;SDS011;6136;47.032;15.398;2022-09-09T11:48:58;1.27;;;1.10;;
12145;SDS011;6136;47.032;15.398;2022-09-09T11:51:27;1.15;;;1.10;;
12145;SDS011;6136;47.032;15.398;2022-09-09T11:53:58;4.25;;;1.13;;
12145;SDS011;6136;47.032;15.398;2022-09-09T11:56:29;1.20;;;1.10;;
12145;SDS011;6136;47.032;15.398;2022-09-09T11:59:00;2.30;;;1.10;;
12145;SDS011;6136;47.032;15.398;2022-09-09T12:01:37;1.90;;;1.38;;
12145;SDS011;6136;47.032;15.398;2022-09-09T12:04:12;1.23;;;1.20;;
12145;SDS011;6136;47.032;15.398;2022-09-09T12:06:58;1.38;;;1.00;;
12145;SDS011;6136;47.032;15.398;2022-09-09T12:09:38;1.42;;;1.30;;
12145;SDS011;6136;47.032;15.398;2022-09-09T12:12:21;1.08;;;1.08;;
12145;SDS011;6136;47.032;15.398;2022-09-09T12:14:59;2.45;;;0.90;;
12145;SDS011;6136;47.032;15.398;2022-09-09T12:17:29;1.35;;;1.25;;
12145;SDS011;6136;47.032;15.398;2022-09-09T12:20:00;1.13;;;1.02;;
12145;SDS011;6136;47.032;15.398;2022-09-09T12:22:35;1.20;;;1.10;;
12145;SDS011;6136;47.032;15.398;2022-09-09T12:25:16;1.10;;;1.10;;
12145;SDS011;6136;47.032;15.398;2022-09-09T12:27:54;1.42;;;1.33;;
12145;SDS011;6136;47.032;15.398;2022-09-09T12:30:31;0.85;;;0.85;;
12145;SDS011;6136;47.032;15.398;2022-09-09T12:33:08;1.20;;;1.10;;
12145;SDS011;6136;47.032;15.398;2022-09-09T12:35:39;1.00;;;1.00;;
12145;SDS011;6136;47.032;15.398;2022-09-09T12:38:12;1.88;;;1.25;;
12145;SDS011;6136;47.032;15.398;2022-09-09T12:40:53;1.00;;;1.00;;
12145;SDS011;6136;47.032;15.398;2022-09-09T12:43:23;1.27;;;1.10;;
12145;SDS011;6136;47.032;15.398;2022-09-09T12:45:53;1.20;;;0.98;;
12145;SDS011;6136;47.032;15.398;2022-09-09T12:48:26;1.52;;;1.42;;
12145;SDS011;6136;47.032;15.398;2022-09-09T12:50:58;1.00;;;1.00;;
12145;SDS011;6136;47.032;15.398;2022-09-09T12:53:27;1.33;;;1.25;;
12145;SDS011;6136;47.032;15.398;2022-09-09T12:56:03;1.10;;;1.00;;
12145;SDS011;6136;47.032;15.398;2022-09-09T12:58:35;2.53;;;1.55;;
12145;SDS011;6136;47.032;15.398;2022-09-09T13:01:05;1.42;;;1.33;;
12145;SDS011;6136;47.032;15.398;2022-09-09T13:03:41;1.45;;;1.35;;
12145;SDS011;6136;47.032;15.398;2022-09-09T13:06:12;1.63;;;1.40;;
12145;SDS011;6136;47.032;15.398;2022-09-09T13:08:46;4.20;;;1.60;;
12145;SDS011;6136;47.032;15.398;2022-09-09T13:11:16;1.50;;;1.40;;
12145;SDS011;6136;47.032;15.398;2022-09-09T13:13:52;1.30;;;1.30;;
12145;SDS011;6136;47.032;15.398;2022-09-09T13:16:23;1.50;;;1.40;;
12145;SDS011;6136;47.032;15.398;2022-09-09T13:18:58;1.42;;;1.33;;
12145;SDS011;6136;47.032;15.398;2022-09-09T13:21:31;1.45;;;1.35;;
12145;SDS011;6136;47.032;15.398;2022-09-09T13:24:04;1.40;;;1.30;;
12145;SDS011;6136;47.032;15.398;2022-09-09T13:26:35;1.85;;;1.55;;
12145;SDS011;6136;47.032;15.398;2022-09-09T13:29:08;1.80;;;1.40;;
12145;SDS011;6136;47.032;15.398;2022-09-09T13:31:45;1.35;;;1.25;;
12145;SDS011;6136;47.032;15.398;2022-09-09T13:34:13;1.40;;;1.30;;
12145;SDS011;6136;47.032;15.398;2022-09-09T13:36:55;1.60;;;1.42;;
12145;SDS011;6136;47.032;15.398;2022-09-09T13:39:28;1.60;;;1.50;;
12145;SDS011;6136;47.032;15.398;2022-09-09T13:41:57;1.73;;;1.45;;
12145;SDS011;6136;47.032;15.398;2022-09-09T13:44:26;1.40;;;1.30;;
12145;SDS011;6136;47.032;15.398;2022-09-09T13:47:00;1.70;;;1.60;;
12145;SDS011;6136;47.032;15.398;2022-09-09T13:49:35;1.60;;;1.50;;
12145;SDS011;6136;47.032;15.398;2022-09-09T13:52:04;1.50;;;1.40;;
12145;SDS011;6136;47.032;15.398;2022-09-09T13:54:36;1.40;;;1.30;;
12145;SDS011;6136;47.032;15.398;2022-09-09T13:57:11;2.08;;;1.45;;
12145;SDS011;6136;47.032;15.398;2022-09-09T13:59:44;2.25;;;1.70;;
12145;SDS011;6136;47.032;15.398;2022-09-09T14:02:30;2.15;;;1.80;;
12145;SDS011;6136;47.032;15.398;2022-09-09T14:04:58;1.58;;;1.48;;
12145;SDS011;6136;47.032;15.398;2022-09-09T14:07:26;6.25;;;1.38;;
12145;SDS011;6136;47.032;15.398;2022-09-09T14:09:54;1.67;;;1.58;;
12145;SDS011;6136;47.032;15.398;2022-09-09T14:12:24;2.80;;;1.60;;
12145;SDS011;6136;47.032;15.398;2022-09-09T14:14:52;1.70;;;1.60;;
12145;SDS011;6136;47.032;15.398;2022-09-09T14:17:20;2.47;;;2.33;;
12145;SDS011;6136;47.032;15.398;2022-09-09T14:19:49;1.55;;;1.45;;
12145;SDS011;6136;47.032;15.398;2022-09-09T14:22:17;2.75;;;1.95;;
12145;SDS011;6136;47.032;15.398;2022-09-09T14:24:45;2.65;;;2.00;;
12145;SDS011;6136;47.032;15.398;2022-09-09T14:27:13;2.08;;;1.90;;
12145;SDS011;6136;47.032;15.398;2022-09-09T14:29:43;2.42;;;2.22;;
12145;SDS011;6136;47.032;15.398;2022-09-09T14:32:11;3.05;;;2.22;;
12145;SDS011;6136;47.032;15.398;2022-09-09T14:34:39;2.47;;;2.28;;
12145;SDS011;6136;47.032;15.398;2022-09-09T14:37:08;4.65;;;2.00;;
12145;SDS011;6136;47.032;15.398;2022-09-09T14:39:36;2.10;;;1.88;;
12145;SDS011;6136;47.032;15.398;2022-09-09T14:42:04;3.03;;;1.98;;
12145;SDS011;6136;47.032;15.398;2022-09-09T14:44:33;2.20;;;2.00;;
12145;SDS011;6136;47.032;15.398;2022-09-09T14:47:02;2.85;;;2.13;;
12145;SDS011;6136;47.032;15.398;2022-09-09T14:49:30;2.13;;;2.03;;
12145;SDS011;6136;47.032;15.398;2022-09-09T14:51:58;2.53;;;1.98;;
12145;SDS011;6136;47.032;15.398;2022-09-09T14:54:27;2.95;;;2.20;;
12145;SDS011;6136;47.032;15.398;2022-09-09T14:56:55;2.20;;;1.95;;
12145;SDS011;6136;47.032;15.398;2022-09-09T14:59:24;2.53;;;2.33;;
12145;SDS011;6136;47.032;15.398;2022-09-09T15:01:53;2.17;;;1.80;;
12145;SDS011;6136;47.032;15.398;2022-09-09T15:04:22;3.03;;;2.40;;
12145;SDS011;6136;47.032;15.398;2022-09-09T15:06:50;5.10;;;2.28;;
12145;SDS011;6136;47.032;15.398;2022-09-09T15:09:19;3.28;;;1.90;;
12145;SDS011;6136;47.032;15.398;2022-09-09T15:11:47;2.10;;;2.00;;
12145;SDS011;6136;47.032;15.398;2022-09-09T15:14:16;2.80;;;2.10;;
12145;SDS011;6136;47.032;15.398;2022-09-09T15:16:47;3.47;;;1.90;;
12145;SDS011;6136;47.032;15.398;2022-09-09T15:19:15;2.30;;;2.10;;
12145;SDS011;6136;47.032;15.398;2022-09-09T15:21:45;4.75;;;2.30;;
12145;SDS011;6136;47.032;15.398;2022-09-09T15:24:13;2.40;;;2.17;;
12145;SDS011;6136;47.032;15.398;2022-09-09T15:26:43;3.55;;;1.98;;
12145;SDS011;6136;47.032;15.398;2022-09-09T15:29:11;2.22;;;2.03;;
12145;SDS011;6136;47.032;15.398;2022-09-09T15:31:39;2.33;;;1.88;;
12145;SDS011;6136;47.032;15.398;2022-09-09T15:34:07;2.45;;;1.85;;
12145;SDS011;6136;47.032;15.398;2022-09-09T15:36:36;1.75;;;1.65;;